sensor_id;sensor_type;location;lat;lon;timestamp;P1;durP1;ratioP1;P2;durP2;ratioP2
32734;SDS011;19112;51.076;3.706;2023-08-08T09:13:01;13.93;;;3.78;;
32734;SDS011;19112;51.076;3.706;2023-08-08T09:19:13;8.40;;;2.95;;
32734;SDS011;19112;51.076;3.706;2023-08-08T09:23:08;8.65;;;3.33;;
32734;SDS011;19112;51.076;3.706;2023-08-08T09:39:42;11.75;;;2.60;;
32734;SDS011;19112;51.076;3.706;2023-08-08T09:56:38;11.18;;;2.90;;
32734;SDS011;19112;51.076;3.706;2023-08-08T10:25:30;11.90;;;3.10;;
32734;SDS011;19112;51.076;3.706;2023-08-08T10:28:39;11.13;;;2.90;;
32734;SDS011;19112;51.076;3.706;2023-08-08T10:31:16;6.03;;;2.70;;
32734;SDS011;19112;51.076;3.706;2023-08-08T10:34:11;9.40;;;3.30;;
32734;SDS011;19112;51.076;3.706;2023-08-08T10:37:24;13.25;;;3.42;;
32734;SDS011;19112;51.076;3.706;2023-08-08T10:45:29;11.57;;;3.00;;
32734;SDS011;19112;51.076;3.706;2023-08-08T11:01:26;9.63;;;2.80;;
32734;SDS011;19112;51.076;3.706;2023-08-08T11:04:59;6.68;;;2.80;;
32734;SDS011;19112;51.076;3.706;2023-08-08T11:08:25;7.28;;;3.03;;
32734;SDS011;19112;51.076;3.706;2023-08-08T11:19:20;7.75;;;2.60;;
32734;SDS011;19112;51.076;3.706;2023-08-08T11:40:47;5.80;;;2.45;;
32734;SDS011;19112;51.076;3.706;2023-08-08T11:54:39;6.53;;;2.22;;
32734;SDS011;19112;51.076;3.706;2023-08-08T11:57:06;6.53;;;2.17;;
32734;SDS011;19112;51.076;3.706;2023-08-08T11:59:35;5.88;;;2.40;;
32734;SDS011;19112;51.076;3.706;2023-08-08T12:05:14;5.55;;;1.90;;
32734;SDS011;19112;51.076;3.706;2023-08-08T12:07:49;6.43;;;1.80;;
32734;SDS011;19112;51.076;3.706;2023-08-08T12:17:25;6.63;;;2.38;;
32734;SDS011;19112;51.076;3.706;2023-08-08T12:22:30;8.15;;;1.98;;
32734;SDS011;19112;51.076;3.706;2023-08-08T12:24:57;6.53;;;1.90;;
32734;SDS011;19112;51.076;3.706;2023-08-08T12:27:23;4.95;;;2.10;;
32734;SDS011;19112;51.076;3.706;2023-08-08T12:29:49;5.80;;;1.95;;
32734;SDS011;19112;51.076;3.706;2023-08-08T12:32:14;3.92;;;1.55;;
32734;SDS011;19112;51.076;3.706;2023-08-08T12:34:40;3.95;;;1.60;;
32734;SDS011;19112;51.076;3.706;2023-08-08T12:37:06;4.40;;;1.88;;
32734;SDS011;19112;51.076;3.706;2023-08-08T12:39:32;4.40;;;1.85;;
32734;SDS011;19112;51.076;3.706;2023-08-08T12:41:58;5.18;;;1.92;;
32734;SDS011;19112;51.076;3.706;2023-08-08T12:44:24;5.53;;;1.80;;
32734;SDS011;19112;51.076;3.706;2023-08-08T12:46:50;4.43;;;1.90;;
32734;SDS011;19112;51.076;3.706;2023-08-08T12:49:16;7.22;;;1.95;;
32734;SDS011;19112;51.076;3.706;2023-08-08T12:51:41;4.93;;;1.80;;
32734;SDS011;19112;51.076;3.706;2023-08-08T12:54:07;5.72;;;1.77;;
32734;SDS011;19112;51.076;3.706;2023-08-08T12:56:33;7.88;;;2.00;;
32734;SDS011;19112;51.076;3.706;2023-08-08T12:58:59;2.88;;;1.67;;
32734;SDS011;19112;51.076;3.706;2023-08-08T13:01:25;4.32;;;1.83;;
32734;SDS011;19112;51.076;3.706;2023-08-08T13:03:51;12.30;;;2.20;;
32734;SDS011;19112;51.076;3.706;2023-08-08T13:06:17;8.50;;;2.13;;
32734;SDS011;19112;51.076;3.706;2023-08-08T13:08:42;5.95;;;2.10;;
32734;SDS011;19112;51.076;3.706;2023-08-08T13:11:08;4.03;;;1.67;;
32734;SDS011;19112;51.076;3.706;2023-08-08T13:13:34;5.40;;;2.10;;
32734;SDS011;19112;51.076;3.706;2023-08-08T13:16:00;6.13;;;1.77;;
32734;SDS011;19112;51.076;3.706;2023-08-08T13:18:26;4.47;;;2.10;;
32734;SDS011;19112;51.076;3.706;2023-08-08T13:20:52;5.18;;;1.65;;
32734;SDS011;19112;51.076;3.706;2023-08-08T13:23:18;4.85;;;1.67;;
32734;SDS011;19112;51.076;3.706;2023-08-08T13:25:44;5.97;;;1.65;;
32734;SDS011;19112;51.076;3.706;2023-08-08T13:28:11;6.10;;;1.67;;
32734;SDS011;19112;51.076;3.706;2023-08-08T13:30:37;3.20;;;1.80;;
32734;SDS011;19112;51.076;3.706;2023-08-08T13:33:03;3.78;;;1.75;;
32734;SDS011;19112;51.076;3.706;2023-08-08T13:35:29;6.70;;;2.10;;
32734;SDS011;19112;51.076;3.706;2023-08-08T13:37:59;4.88;;;1.88;;
32734;SDS011;19112;51.076;3.706;2023-08-08T13:44:30;5.57;;;2.35;;
32734;SDS011;19112;51.076;3.706;2023-08-08T13:46:56;8.20;;;2.35;;
32734;SDS011;19112;51.076;3.706;2023-08-08T13:49:24;5.50;;;2.10;;
32734;SDS011;19112;51.076;3.706;2023-08-08T13:52:28;6.45;;;2.00;;
32734;SDS011;19112;51.076;3.706;2023-08-08T13:55:08;8.15;;;2.03;;
32734;SDS011;19112;51.076;3.706;2023-08-08T15:08:46;6.63;;;2.67;;
32734;SDS011;19112;51.076;3.706;2023-08-08T15:15:25;9.65;;;2.92;;
32734;SDS011;19112;51.076;3.706;2023-08-08T15:21:40;17.50;;;3.47;;
32734;SDS011;19112;51.076;3.706;2023-08-08T15:38:01;9.73;;;2.88;;
32734;SDS011;19112;51.076;3.706;2023-08-08T15:40:58;8.82;;;3.22;;
32734;SDS011;19112;51.076;3.706;2023-08-08T15:54:11;11.57;;;3.33;;
